createdAt,value
2023-05-25T00:01:02.444Z,95529.72
2023-05-25T00:03:49.658Z,95547.44
2023-05-25T00:06:37.520Z,95548.16
2023-05-25T00:09:25.099Z,95554.31
2023-05-25T00:12:11.245Z,95546.00
2023-05-25T00:14:57.090Z,95547.06
2023-05-25T00:17:42.994Z,95553.19
2023-05-25T00:20:28.809Z,95544.09
2023-05-25T00:23:14.697Z,95554.34
2023-05-25T00:26:02.601Z,95549.84
2023-05-25T00:28:48.632Z,95549.84
2023-05-25T00:31:36.844Z,95556.88
2023-05-25T00:34:23.093Z,95547.34
2023-05-25T00:37:09.066Z,95555.31
2023-05-25T00:39:55.397Z,95559.16
2023-05-25T00:42:41.715Z,95560.53
2023-05-25T00:45:27.737Z,95563.72
2023-05-25T00:48:14.077Z,95574.66
2023-05-25T00:51:00.277Z,95569.88
2023-05-25T00:53:46.050Z,95563.53
2023-05-25T00:56:35.205Z,95569.00
2023-05-25T00:59:45.170Z,95569.69
2023-05-25T01:02:31.439Z,95564.91
2023-05-25T01:05:17.842Z,95565.28
2023-05-25T01:08:05.614Z,95572.69
2023-05-25T01:10:52.973Z,95549.75
2023-05-25T01:13:39.358Z,95565.97
2023-05-25T01:16:28.889Z,95560.75
2023-05-25T01:19:15.872Z,95560.75
2023-05-25T01:22:07.575Z,95565.41
2023-05-25T01:25:02.407Z,95565.34
2023-05-25T01:27:52.380Z,95568.84
2023-05-25T01:30:42.283Z,95568.41
2023-05-25T01:33:29.082Z,95566.81
2023-05-25T01:36:15.216Z,95563.09
2023-05-25T01:39:01.482Z,95554.09
2023-05-25T01:41:47.586Z,95556.47
2023-05-25T01:44:33.392Z,95554.34
2023-05-25T01:47:29.448Z,95557.06
2023-05-25T01:50:30.881Z,95553.88
2023-05-25T01:53:19.915Z,95555.72
2023-05-25T01:56:08.802Z,95558.34
2023-05-25T01:58:56.789Z,95545.03
2023-05-25T02:01:44.316Z,95551.88
2023-05-25T02:04:31.599Z,95537.78
2023-05-25T02:07:17.688Z,95553.47
2023-05-25T02:10:04.804Z,95550.28
2023-05-25T02:12:51.003Z,95537.56
2023-05-25T02:15:37.516Z,95551.88
2023-05-25T02:18:23.823Z,95550.28
2023-05-25T02:21:13.149Z,95557.56
2023-05-25T02:23:59.329Z,95561.88
2023-05-25T02:26:45.134Z,95556.44
2023-05-25T02:29:33.641Z,95548.47
2023-05-25T02:32:21.300Z,95569.84
2023-05-25T02:35:08.576Z,95573.81
2023-05-25T02:37:54.864Z,95568.25
2023-05-25T02:40:40.891Z,95574.59
2023-05-25T02:43:26.787Z,95578.47
2023-05-25T02:46:12.696Z,95576.06
2023-05-25T02:48:59.528Z,95577.13
2023-05-25T02:51:45.428Z,95583.25
2023-05-25T02:54:31.450Z,95594.41
2023-05-25T02:57:17.399Z,95592.69
2023-05-25T03:00:05.109Z,95595.28
2023-05-25T03:02:51.533Z,95600.66
2023-05-25T03:05:38.815Z,95593.59
2023-05-25T03:08:25.269Z,95597.81
2023-05-25T03:11:11.352Z,95598.13
2023-05-25T03:13:58.544Z,95603.59
2023-05-25T03:16:46.200Z,95602.56
2023-05-25T03:19:32.519Z,95608.50
2023-05-25T03:22:18.896Z,95602.78
2023-05-25T03:25:06.186Z,95604.25
2023-05-25T03:27:54.139Z,95605.06
2023-05-25T03:30:40.259Z,95615.97
2023-05-25T03:33:27.592Z,95616.78
2023-05-25T03:36:13.839Z,95610.97
2023-05-25T03:39:01.199Z,95610.19
2023-05-25T03:41:48.696Z,95619.16
2023-05-25T03:44:35.694Z,95617.81
2023-05-25T03:47:21.728Z,95622.13
2023-05-25T03:50:08.434Z,95636.91
2023-05-25T03:52:54.702Z,95627.34
2023-05-25T03:55:43.230Z,95617.91
2023-05-25T03:58:29.436Z,95630.06
2023-05-25T04:01:16.810Z,95632.00
2023-05-25T04:04:03.044Z,95639.84
2023-05-25T04:06:49.219Z,95645.31
2023-05-25T04:09:35.379Z,95637.78
2023-05-25T04:12:22.343Z,95644.38
2023-05-25T04:15:09.733Z,95632.44
2023-05-25T04:18:07.898Z,95638.94
2023-05-25T04:20:56.728Z,95644.97
2023-05-25T04:23:43.263Z,95652.47
2023-05-25T04:26:29.480Z,95646.91
2023-05-25T04:29:16.261Z,95656.44
2023-05-25T04:32:17.840Z,95651.78
2023-05-25T04:35:26.995Z,95654.44
2023-05-25T04:38:17.746Z,95652.59
2023-05-25T04:41:04.193Z,95657.84
2023-05-25T04:44:05.815Z,95670.09
2023-05-25T04:47:01.453Z,95662.03
2023-05-25T04:49:53.403Z,95659.44
2023-05-25T04:52:39.104Z,95659.06
2023-05-25T04:55:24.979Z,95658.97
2023-05-25T05:00:56.887Z,95674.66
2023-05-25T05:03:42.757Z,95661.44
2023-05-25T05:06:28.972Z,95664.66
2023-05-25T05:09:15.216Z,95660.31
2023-05-25T05:12:03.362Z,95669.53
2023-05-25T05:14:56.101Z,95667.59
2023-05-25T05:17:42.451Z,95668.84
2023-05-25T05:20:30.648Z,95678.75
2023-05-25T05:23:16.649Z,95669.75
2023-05-25T05:26:05.030Z,95660.31
2023-05-25T05:28:52.747Z,95660.53
2023-05-25T05:31:39.771Z,95666.78
2023-05-25T05:34:27.368Z,95668.94
2023-05-25T05:37:14.063Z,95660.75
2023-05-25T05:40:27.021Z,95666.31
2023-05-25T05:43:13.643Z,95663.34
2023-05-25T05:45:59.754Z,95663.44
2023-05-25T05:48:46.041Z,95671.50
2023-05-25T05:51:33.059Z,95673.22
2023-05-25T05:54:20.640Z,95668.63
2023-05-25T05:57:06.837Z,95664.94
2023-05-25T05:59:52.625Z,95661.22
2023-05-25T06:02:41.361Z,95666.97
2023-05-25T06:05:29.781Z,95661.97
2023-05-25T06:08:17.152Z,95661.00
2023-05-25T06:11:03.228Z,95662.44
2023-05-25T06:13:49.525Z,95668.81
2023-05-25T06:16:36.797Z,95659.56
2023-05-25T06:19:23.087Z,95671.59
2023-05-25T06:22:09.116Z,95667.34
2023-05-25T06:24:55.250Z,95666.75
2023-05-25T06:27:41.118Z,95669.66
2023-05-25T06:30:27.608Z,95663.22
2023-05-25T06:33:14.568Z,95661.03
2023-05-25T06:36:02.166Z,95665.88
2023-05-25T06:38:48.334Z,95663.78
2023-05-25T06:41:34.854Z,95663.19
2023-05-25T06:44:21.781Z,95653.03
2023-05-25T06:47:07.713Z,95660.69
2023-05-25T06:49:53.875Z,95665.91
2023-05-25T06:52:39.764Z,95659.00
2023-05-25T06:55:25.980Z,95657.88
2023-05-25T06:58:11.973Z,95664.75
2023-05-25T07:00:58.105Z,95662.09
2023-05-25T07:03:44.280Z,95658.19
2023-05-25T07:06:30.025Z,95653.13
2023-05-25T07:09:15.975Z,95655.69
2023-05-25T07:12:02.678Z,95646.69
2023-05-25T07:14:48.967Z,95644.09
2023-05-25T07:17:38.828Z,95645.84
2023-05-25T07:20:25.277Z,95650.00
2023-05-25T07:23:11.857Z,95650.22
2023-05-25T07:25:57.903Z,95647.91
2023-05-25T07:28:45.212Z,95641.41
2023-05-25T07:31:39.769Z,95650.59
2023-05-25T07:34:28.009Z,95657.72
2023-05-25T07:37:13.979Z,95649.94
2023-05-25T07:40:02.181Z,95644.53
2023-05-25T07:42:48.363Z,95652.41
2023-05-25T07:45:34.156Z,95651.66
2023-05-25T07:48:20.059Z,95647.91
2023-05-25T07:51:06.027Z,95645.31
2023-05-25T07:53:54.169Z,95639.53
2023-05-25T07:56:40.142Z,95649.13
2023-05-25T07:59:26.433Z,95642.97
2023-05-25T08:02:12.477Z,95644.97
2023-05-25T08:04:59.802Z,95642.81
2023-05-25T08:07:46.576Z,95639.75
2023-05-25T08:10:32.556Z,95648.84
2023-05-25T08:13:18.573Z,95652.03
2023-05-25T08:16:04.552Z,95653.63
2023-05-25T08:18:51.004Z,95664.72
2023-05-25T08:21:37.786Z,95640.34
2023-05-25T08:24:23.830Z,95664.78
2023-05-25T08:27:09.692Z,95655.41
2023-05-25T08:29:56.146Z,95654.16
2023-05-25T08:32:42.095Z,95669.47
2023-05-25T08:35:29.407Z,95665.50
2023-05-25T08:38:15.680Z,95674.97
2023-05-25T08:41:06.263Z,95669.41
2023-05-25T08:43:52.541Z,95676.41
2023-05-25T08:46:42.052Z,95671.59
2023-05-25T08:49:28.235Z,95689.91
2023-05-25T08:52:15.046Z,95685.44
2023-05-25T08:55:04.884Z,95693.06
2023-05-25T08:58:03.352Z,95702.03
2023-05-25T09:00:55.832Z,95710.97
2023-05-25T09:03:41.892Z,95692.81
2023-05-25T09:06:28.451Z,95703.47
2023-05-25T09:09:14.715Z,95715.59
2023-05-25T09:12:00.723Z,95702.31
2023-05-25T09:14:48.221Z,95695.16
2023-05-25T09:17:38.061Z,95692.50
2023-05-25T09:20:25.014Z,95686.56
2023-05-25T09:23:11.021Z,95689.75
2023-05-25T09:25:58.189Z,95696.13
2023-05-25T09:28:48.518Z,95705.19
2023-05-25T09:31:34.710Z,95701.72
2023-05-25T09:34:20.862Z,95706.50
2023-05-25T09:37:14.433Z,95717.13
2023-05-25T09:40:00.506Z,95727.75
2023-05-25T09:42:46.198Z,95707.41
2023-05-25T09:45:32.276Z,95717.97
2023-05-25T09:48:18.319Z,95719.13
2023-05-25T09:51:04.677Z,95720.72
2023-05-25T09:53:51.624Z,95726.16
2023-05-25T09:56:38.754Z,95719.06
2023-05-25T09:59:24.579Z,95733.25
2023-05-25T10:02:11.146Z,95728.44
2023-05-25T10:04:57.737Z,95723.13
2023-05-25T10:07:47.953Z,95731.78
2023-05-25T10:10:33.811Z,95724.34
2023-05-25T10:13:23.362Z,95722.31
2023-05-25T10:16:13.414Z,95722.41
2023-05-25T10:19:02.322Z,95724.06
2023-05-25T10:21:56.849Z,95725.25
2023-05-25T10:24:46.051Z,95732.78
2023-05-25T10:27:44.790Z,95729.75
2023-05-25T10:30:31.040Z,95723.50
2023-05-25T10:33:17.346Z,95712.53
2023-05-25T10:36:10.831Z,95711.81
2023-05-25T10:38:57.785Z,95701.69
2023-05-25T10:41:44.174Z,95704.13
2023-05-25T10:44:32.818Z,95685.41
2023-05-25T10:47:19.214Z,95679.84
2023-05-25T10:50:06.090Z,95676.75
2023-05-25T10:53:03.099Z,95668.06
2023-05-25T10:55:54.880Z,95675.22
2023-05-25T10:58:43.813Z,95670.53
2023-05-25T11:01:33.825Z,95668.44
2023-05-25T11:04:19.986Z,95672.31
2023-05-25T11:07:13.383Z,95671.13
2023-05-25T11:09:59.613Z,95673.44
2023-05-25T11:12:46.661Z,95667.03
2023-05-25T11:15:32.769Z,95674.84
2023-05-25T11:18:18.865Z,95662.56
2023-05-25T11:21:22.263Z,95652.63
2023-05-25T11:24:16.201Z,95655.06
2023-05-25T11:27:01.967Z,95667.78
2023-05-25T11:29:51.090Z,95661.31
2023-05-25T11:32:39.890Z,95659.59
2023-05-25T11:35:26.718Z,95653.91
2023-05-25T11:38:12.807Z,95645.22
2023-05-25T11:40:58.798Z,95641.59
2023-05-25T11:43:51.743Z,95644.22
2023-05-25T11:46:39.017Z,95644.41
2023-05-25T11:49:26.059Z,95656.41
2023-05-25T11:52:13.467Z,95658.94
2023-05-25T11:54:59.484Z,95651.97
2023-05-25T11:57:45.384Z,95659.25
2023-05-25T12:00:31.672Z,95653.91
2023-05-25T12:03:34.789Z,95637.91
2023-05-25T12:06:28.997Z,95634.53
2023-05-25T12:09:19.879Z,95627.16
2023-05-25T12:12:06.714Z,95633.13
2023-05-25T12:14:52.893Z,95615.09
2023-05-25T12:17:42.646Z,95612.75
2023-05-25T12:20:28.991Z,95618.38
2023-05-25T12:23:15.273Z,95627.50
2023-05-25T12:26:13.365Z,95628.81
2023-05-25T12:29:01.255Z,95634.34
2023-05-25T12:31:47.496Z,95626.47
2023-05-25T12:34:35.508Z,95637.41
2023-05-25T12:37:22.606Z,95642.44
2023-05-25T12:40:21.615Z,95638.00
2023-05-25T12:43:07.894Z,95645.38
2023-05-25T12:45:55.181Z,95644.06
2023-05-25T12:48:41.165Z,95658.53
2023-05-25T12:51:38.314Z,95662.59
2023-05-25T12:54:46.560Z,95666.34
2023-05-25T13:01:02.362Z,95656.28
2023-05-25T13:03:49.471Z,95660.28
2023-05-25T13:06:36.089Z,95666.63
2023-05-25T13:09:28.689Z,95672.69
2023-05-25T13:12:14.876Z,95666.19
2023-05-25T13:15:01.259Z,95679.78
2023-05-25T13:17:48.379Z,95673.38
2023-05-25T13:20:34.378Z,95665.84
2023-05-25T13:23:20.416Z,95648.38
2023-05-25T13:26:06.749Z,95643.44
2023-05-25T13:29:28.433Z,95651.91
2023-05-25T13:32:15.013Z,95645.44
2023-05-25T13:35:08.078Z,95645.28
2023-05-25T13:37:54.190Z,95651.50
2023-05-25T13:40:40.527Z,95637.47
2023-05-25T13:43:30.990Z,95643.84
2023-05-25T13:46:32.866Z,95636.91
2023-05-25T13:49:28.724Z,95626.78
2023-05-25T13:52:14.711Z,95637.16
2023-05-25T13:55:00.985Z,95647.09
2023-05-25T13:57:47.188Z,95643.69
2023-05-25T14:00:33.517Z,95646.91
2023-05-25T14:03:19.633Z,95641.47
2023-05-25T14:06:06.010Z,95640.00
2023-05-25T14:08:51.754Z,95647.50
2023-05-25T14:11:37.799Z,95645.19
2023-05-25T14:14:31.346Z,95660.88
2023-05-25T14:17:22.902Z,95660.50
2023-05-25T14:20:09.833Z,95671.91
2023-05-25T14:22:56.075Z,95658.97
2023-05-25T14:25:42.790Z,95658.16
2023-05-25T14:28:29.066Z,95650.19
2023-05-25T14:31:15.111Z,95658.84
2023-05-25T14:34:01.146Z,95658.00
2023-05-25T14:36:47.248Z,95665.75
2023-05-25T14:39:33.136Z,95661.78
2023-05-25T14:42:19.408Z,95651.53
2023-05-25T14:45:07.498Z,95647.19
2023-05-25T14:48:04.000Z,95645.94
2023-05-25T14:51:02.714Z,95645.88
2023-05-25T14:53:48.498Z,95642.22
2023-05-25T14:56:34.824Z,95635.47
2023-05-25T14:59:21.162Z,95634.59
2023-05-25T15:02:07.556Z,95629.00
2023-05-25T15:04:54.716Z,95593.31
2023-05-25T15:07:41.667Z,95624.06
2023-05-25T15:10:28.073Z,95621.19
2023-05-25T15:13:14.292Z,95626.09
2023-05-25T15:16:00.514Z,95613.00
2023-05-25T15:18:46.514Z,95619.19
2023-05-25T15:21:32.780Z,95619.50
2023-05-25T15:24:19.092Z,95614.72
2023-05-25T15:27:06.593Z,95610.69
2023-05-25T15:29:52.771Z,95620.94
2023-05-25T15:32:38.577Z,95606.75
2023-05-25T15:35:31.141Z,95613.06
2023-05-25T15:38:22.078Z,95616.16
2023-05-25T15:41:08.607Z,95604.34
2023-05-25T15:43:58.396Z,95606.00
2023-05-25T15:46:45.193Z,95606.88
2023-05-25T15:49:32.247Z,95602.19
2023-05-25T15:52:18.659Z,95605.34
2023-05-25T15:55:04.920Z,95598.28
2023-05-25T15:57:52.009Z,95602.31
2023-05-25T16:00:38.068Z,95602.31
2023-05-25T16:03:24.261Z,95594.50
2023-05-25T16:06:11.277Z,95590.63
2023-05-25T16:08:58.893Z,95592.22
2023-05-25T16:11:44.850Z,95592.22
2023-05-25T16:14:30.921Z,95590.63
2023-05-25T16:17:17.053Z,95598.84
2023-05-25T16:20:03.241Z,95594.50
2023-05-25T16:22:49.336Z,95607.00
2023-05-25T16:25:35.255Z,95606.16
2023-05-25T16:28:21.485Z,95617.16
2023-05-25T16:31:07.902Z,95618.75
2023-05-25T16:33:54.215Z,95624.25
2023-05-25T16:36:40.344Z,95619.50
2023-05-25T16:39:26.325Z,95625.78
2023-05-25T16:42:12.470Z,95636.66
2023-05-25T16:45:00.070Z,95630.75
2023-05-25T16:47:45.971Z,95639.69
2023-05-25T16:50:32.222Z,95646.75
2023-05-25T16:53:18.301Z,95638.09
2023-05-25T16:56:04.301Z,95634.88
2023-05-25T16:58:51.739Z,95640.69
2023-05-25T17:01:37.933Z,95639.63
2023-05-25T17:04:23.664Z,95630.09
2023-05-25T17:07:29.582Z,95634.78
2023-05-25T17:10:15.637Z,95627.31
2023-05-25T17:13:02.281Z,95614.88
2023-05-25T17:15:48.618Z,95626.44
2023-05-25T17:18:35.050Z,95622.81
2023-05-25T17:21:21.320Z,95625.19
2023-05-25T17:24:08.032Z,95631.47
2023-05-25T17:26:54.193Z,95630.25
2023-05-25T17:29:42.107Z,95632.19
2023-05-25T17:32:28.239Z,95623.13
2023-05-25T17:35:14.479Z,95632.91
2023-05-25T17:38:00.687Z,95628.06
2023-05-25T17:40:48.056Z,95620.13
2023-05-25T17:43:34.162Z,95623.47
2023-05-25T17:46:19.967Z,95637.19
2023-05-25T17:49:39.504Z,95632.34
2023-05-25T17:52:26.344Z,95635.34
2023-05-25T17:55:12.398Z,95623.03
2023-05-25T17:57:58.306Z,95643.44
2023-05-25T18:00:44.239Z,95641.38
2023-05-25T18:03:30.154Z,95645.22
2023-05-25T18:06:16.128Z,95650.69
2023-05-25T18:09:02.265Z,95647.06
2023-05-25T18:11:48.212Z,95649.09
2023-05-25T18:14:37.601Z,95653.69
2023-05-25T18:17:23.758Z,95666.31
2023-05-25T18:20:10.281Z,95654.41
2023-05-25T18:22:56.446Z,95669.50
2023-05-25T18:25:42.756Z,95671.44
2023-05-25T18:28:30.480Z,95665.53
2023-05-25T18:31:17.451Z,95658.81
2023-05-25T18:34:03.924Z,95660.75
2023-05-25T18:36:50.348Z,95660.59
2023-05-25T18:39:36.225Z,95671.56
2023-05-25T18:42:22.098Z,95665.19
2023-05-25T18:45:08.265Z,95661.94
2023-05-25T18:47:54.502Z,95673.69
2023-05-25T18:50:42.198Z,95658.66
2023-05-25T18:53:28.437Z,95666.88
2023-05-25T18:56:14.493Z,95677.38
2023-05-25T18:59:00.848Z,95683.59
2023-05-25T19:01:46.943Z,95681.66
2023-05-25T19:04:32.784Z,95692.94
2023-05-25T19:07:18.883Z,95689.75
2023-05-25T19:10:05.378Z,95688.84
2023-05-25T19:12:51.392Z,95697.97
2023-05-25T19:15:37.938Z,95695.22
2023-05-25T19:18:23.802Z,95693.63
2023-05-25T19:21:10.041Z,95711.66
2023-05-25T19:23:57.593Z,95712.78
2023-05-25T19:26:44.019Z,95709.16
2023-05-25T19:29:30.015Z,95705.22
2023-05-25T19:32:17.315Z,95721.25
2023-05-25T19:35:03.269Z,95730.19
2023-05-25T19:37:49.583Z,95726.66
2023-05-25T19:40:35.737Z,95726.56
2023-05-25T19:43:21.919Z,95740.00
2023-05-25T19:46:08.451Z,95728.59
2023-05-25T19:48:55.161Z,95715.59
2023-05-25T19:51:41.374Z,95706.47
2023-05-25T19:54:27.563Z,95715.94
2023-05-25T19:57:13.821Z,95732.47
2023-05-25T20:00:02.592Z,95721.09
2023-05-25T20:02:57.596Z,95728.50
2023-05-25T20:05:44.069Z,95734.75
2023-05-25T20:08:31.597Z,95745.22
2023-05-25T20:11:17.818Z,95738.88
2023-05-25T20:14:04.464Z,95733.84
2023-05-25T20:16:52.426Z,95733.84
2023-05-25T20:19:38.419Z,95727.50
2023-05-25T20:22:24.832Z,95734.56
2023-05-25T20:25:10.919Z,95722.81
2023-05-25T20:27:57.276Z,95727.50
2023-05-25T20:30:44.531Z,95714.94
2023-05-25T20:33:30.729Z,95723.84
2023-05-25T20:36:17.305Z,95714.75
2023-05-25T20:39:03.769Z,95716.34
2023-05-25T20:41:50.026Z,95720.03
2023-05-25T20:44:36.435Z,95736.91
2023-05-25T20:47:22.855Z,95726.19
2023-05-25T20:50:09.625Z,95723.91
2023-05-25T20:52:56.437Z,95721.44
2023-05-25T20:55:43.023Z,95721.44
2023-05-25T20:58:28.923Z,95725.56
2023-05-25T21:01:16.056Z,95720.38
2023-05-25T21:04:02.542Z,95724.03
2023-05-25T21:06:49.897Z,95730.66
2023-05-25T21:09:36.220Z,95723.16
2023-05-25T21:12:22.623Z,95718.81
2023-05-25T21:15:08.703Z,95711.06
2023-05-25T21:17:55.034Z,95699.50
2023-05-25T21:20:41.385Z,95713.59
2023-05-25T21:23:28.864Z,95708.56
2023-05-25T21:26:14.949Z,95713.59
2023-05-25T21:29:01.278Z,95714.31
2023-05-25T21:31:47.712Z,95700.97
2023-05-25T21:34:33.692Z,95706.09
2023-05-25T21:37:19.859Z,95703.59
2023-05-25T21:40:07.003Z,95708.63
2023-05-25T21:42:56.023Z,95714.44
2023-05-25T21:45:42.068Z,95708.16
2023-05-25T21:48:27.960Z,95703.88
2023-05-25T21:51:13.846Z,95698.63
2023-05-25T21:54:00.051Z,95700.13
2023-05-25T21:56:46.396Z,95707.88
2023-05-25T21:59:32.320Z,95707.78
2023-05-25T22:02:18.113Z,95716.78
2023-05-25T22:05:04.288Z,95710.41
2023-05-25T22:07:50.165Z,95711.66
2023-05-25T22:10:36.756Z,95700.03
2023-05-25T22:13:22.463Z,95700.94
2023-05-25T22:16:08.241Z,95693.88
2023-05-25T22:18:54.045Z,95687.59
2023-05-25T22:21:40.008Z,95682.13
2023-05-25T22:24:25.672Z,95687.75
2023-05-25T22:27:11.494Z,95684.22
2023-05-25T22:29:57.650Z,95688.53
2023-05-25T22:32:43.515Z,95690.47
2023-05-25T22:35:29.740Z,95681.34
2023-05-25T22:38:15.714Z,95684.06
2023-05-25T22:41:01.586Z,95682.75
2023-05-25T22:43:47.369Z,95685.94
2023-05-25T22:46:33.111Z,95691.72
2023-05-25T22:49:18.815Z,95684.81
2023-05-25T22:52:04.803Z,95685.63
2023-05-25T22:54:50.742Z,95687.88
2023-05-25T22:57:36.574Z,95685.50
2023-05-25T23:00:22.490Z,95686.19
2023-05-25T23:03:08.441Z,95684.59
2023-05-25T23:05:54.671Z,95679.03
2023-05-25T23:08:40.449Z,95677.34
2023-05-25T23:11:27.278Z,95668.69
2023-05-25T23:14:13.157Z,95666.88
2023-05-25T23:16:59.274Z,95673.47
2023-05-25T23:19:45.507Z,95664.81
2023-05-25T23:22:31.612Z,95660.06
2023-05-25T23:25:17.374Z,95664.03
2023-05-25T23:28:03.369Z,95668.69
2023-05-25T23:30:49.278Z,95664.03
2023-05-25T23:33:35.610Z,95652.09
2023-05-25T23:36:21.947Z,95661.53
2023-05-25T23:39:08.215Z,95655.97
2023-05-25T23:41:54.120Z,95661.09
2023-05-25T23:44:39.979Z,95662.09
2023-05-25T23:47:26.234Z,95653.56
2023-05-25T23:50:12.202Z,95657.09
2023-05-25T23:52:57.894Z,95647.31
2023-05-25T23:55:44.004Z,95644.84
2023-05-25T23:58:30.243Z,95640.84
